Terminal Aerodrome Forecast
Issued by NWS

Home | Current Version | Previous Version | Text Only | Print | Product List | Glossary On
Versions: 1 2 3 4 5 6 7 8 9 10 11 12 13 14 15 16 17 18 19 20 21 22 23 24 25 26 27 28 29 30 31 32 33 34 35 36 37 38 39 40 41
000
FTUS42 KCAE 162300
TAFOGB
TAF
KOGB 162339Z 1700/1724 16005KT P6SM SCT040 SCT200
     FM170300 VRB03KT 3SM BR SCT010
     FM170600 00000KT 1/2SM FG OVC003
     FM171300 03003KT P6SM BKN015
     FM171500 03004KT P6SM BKN040 BKN100=

USA.gov is the U.S. government's official web portal to all federal, state and local government web resources and services.